sensor_id;sensor_type;location;lat;lon;timestamp;P1;durP1;ratioP1;P2;durP2;ratioP2
74347;SDS011;62778;50.406;10.008;2022-11-15T00:00:03;5.97;;;2.97;;
74347;SDS011;62778;50.406;10.008;2022-11-15T00:00:59;5.63;;;2.45;;
74347;SDS011;62778;50.406;10.008;2022-11-15T00:01:54;5.47;;;2.47;;
74347;SDS011;62778;50.406;10.008;2022-11-15T00:02:51;5.87;;;2.33;;
74347;SDS011;62778;50.406;10.008;2022-11-15T00:03:50;6.10;;;2.92;;
74347;SDS011;62778;50.406;10.008;2022-11-15T00:04:46;6.75;;;2.20;;
74347;SDS011;62778;50.406;10.008;2022-11-15T00:05:41;5.83;;;2.33;;
74347;SDS011;62778;50.406;10.008;2022-11-15T00:06:37;5.65;;;2.55;;
74347;SDS011;62778;50.406;10.008;2022-11-15T00:07:32;6.60;;;2.70;;
74347;SDS011;62778;50.406;10.008;2022-11-15T00:08:31;6.40;;;3.00;;
74347;SDS011;62778;50.406;10.008;2022-11-15T00:09:27;5.78;;;2.50;;
74347;SDS011;62778;50.406;10.008;2022-11-15T00:10:22;6.13;;;2.80;;
74347;SDS011;62778;50.406;10.008;2022-11-15T00:11:18;7.37;;;2.87;;
74347;SDS011;62778;50.406;10.008;2022-11-15T00:12:13;5.82;;;2.50;;
74347;SDS011;62778;50.406;10.008;2022-11-15T00:13:09;7.90;;;2.67;;
74347;SDS011;62778;50.406;10.008;2022-11-15T00:14:06;6.55;;;2.35;;
74347;SDS011;62778;50.406;10.008;2022-11-15T00:15:01;7.83;;;2.60;;
74347;SDS011;62778;50.406;10.008;2022-11-15T00:15:57;5.93;;;2.50;;
74347;SDS011;62778;50.406;10.008;2022-11-15T00:16:54;5.97;;;2.63;;
74347;SDS011;62778;50.406;10.008;2022-11-15T00:17:49;6.37;;;2.73;;
74347;SDS011;62778;50.406;10.008;2022-11-15T00:18:45;6.05;;;2.70;;
74347;SDS011;62778;50.406;10.008;2022-11-15T00:19:40;5.13;;;2.30;;
74347;SDS011;62778;50.406;10.008;2022-11-15T00:20:35;5.23;;;2.33;;
74347;SDS011;62778;50.406;10.008;2022-11-15T00:21:31;6.63;;;2.17;;
74347;SDS011;62778;50.406;10.008;2022-11-15T00:22:31;6.05;;;2.55;;
74347;SDS011;62778;50.406;10.008;2022-11-15T00:23:29;5.57;;;2.13;;
74347;SDS011;62778;50.406;10.008;2022-11-15T00:24:24;7.27;;;2.40;;
74347;SDS011;62778;50.406;10.008;2022-11-15T00:25:19;5.50;;;2.27;;
74347;SDS011;62778;50.406;10.008;2022-11-15T00:26:15;5.37;;;2.40;;
74347;SDS011;62778;50.406;10.008;2022-11-15T00:27:10;5.33;;;2.30;;
74347;SDS011;62778;50.406;10.008;2022-11-15T00:28:05;5.40;;;2.20;;
74347;SDS011;62778;50.406;10.008;2022-11-15T00:29:01;6.37;;;3.00;;
74347;SDS011;62778;50.406;10.008;2022-11-15T00:29:56;5.50;;;2.50;;
74347;SDS011;62778;50.406;10.008;2022-11-15T00:30:52;5.45;;;2.60;;
74347;SDS011;62778;50.406;10.008;2022-11-15T00:31:47;6.63;;;2.87;;
74347;SDS011;62778;50.406;10.008;2022-11-15T00:32:42;5.83;;;2.60;;
74347;SDS011;62778;50.406;10.008;2022-11-15T00:33:38;5.93;;;2.50;;
74347;SDS011;62778;50.406;10.008;2022-11-15T00:34:33;5.90;;;2.80;;
74347;SDS011;62778;50.406;10.008;2022-11-15T00:35:30;6.20;;;2.90;;
74347;SDS011;62778;50.406;10.008;2022-11-15T00:36:27;6.07;;;2.53;;
74347;SDS011;62778;50.406;10.008;2022-11-15T00:37:22;5.37;;;2.70;;
74347;SDS011;62778;50.406;10.008;2022-11-15T00:38:17;6.00;;;2.60;;
74347;SDS011;62778;50.406;10.008;2022-11-15T00:39:13;6.35;;;2.75;;
74347;SDS011;62778;50.406;10.008;2022-11-15T00:40:08;6.80;;;3.10;;
74347;SDS011;62778;50.406;10.008;2022-11-15T00:41:06;6.07;;;3.03;;
74347;SDS011;62778;50.406;10.008;2022-11-15T00:42:02;6.25;;;3.20;;
74347;SDS011;62778;50.406;10.008;2022-11-15T00:42:57;7.90;;;3.13;;
74347;SDS011;62778;50.406;10.008;2022-11-15T00:43:52;6.97;;;3.00;;
74347;SDS011;62778;50.406;10.008;2022-11-15T00:44:48;7.10;;;3.60;;
74347;SDS011;62778;50.406;10.008;2022-11-15T00:45:43;6.93;;;3.27;;
74347;SDS011;62778;50.406;10.008;2022-11-15T00:46:38;7.10;;;3.50;;
74347;SDS011;62778;50.406;10.008;2022-11-15T00:47:34;6.70;;;3.03;;
74347;SDS011;62778;50.406;10.008;2022-11-15T00:48:29;7.23;;;3.90;;
74347;SDS011;62778;50.406;10.008;2022-11-15T00:49:24;7.88;;;3.80;;
74347;SDS011;62778;50.406;10.008;2022-11-15T00:50:20;7.17;;;3.57;;
74347;SDS011;62778;50.406;10.008;2022-11-15T00:51:15;6.53;;;3.50;;
74347;SDS011;62778;50.406;10.008;2022-11-15T00:52:10;6.60;;;3.37;;
74347;SDS011;62778;50.406;10.008;2022-11-15T00:53:06;7.53;;;3.47;;
74347;SDS011;62778;50.406;10.008;2022-11-15T00:54:01;6.10;;;3.28;;
74347;SDS011;62778;50.406;10.008;2022-11-15T00:54:56;7.90;;;3.80;;
74347;SDS011;62778;50.406;10.008;2022-11-15T00:55:52;8.37;;;3.77;;
74347;SDS011;62778;50.406;10.008;2022-11-15T00:56:47;7.20;;;3.33;;
74347;SDS011;62778;50.406;10.008;2022-11-15T00:57:43;6.82;;;3.60;;
74347;SDS011;62778;50.406;10.008;2022-11-15T00:58:38;9.13;;;3.90;;
74347;SDS011;62778;50.406;10.008;2022-11-15T00:59:34;7.80;;;3.70;;
74347;SDS011;62778;50.406;10.008;2022-11-15T01:00:29;7.05;;;3.50;;
74347;SDS011;62778;50.406;10.008;2022-11-15T01:01:24;7.47;;;3.87;;
74347;SDS011;62778;50.406;10.008;2022-11-15T01:02:19;7.97;;;3.60;;
74347;SDS011;62778;50.406;10.008;2022-11-15T01:03:15;7.60;;;3.70;;
74347;SDS011;62778;50.406;10.008;2022-11-15T01:04:10;6.70;;;3.30;;
74347;SDS011;62778;50.406;10.008;2022-11-15T01:05:06;7.18;;;3.65;;
74347;SDS011;62778;50.406;10.008;2022-11-15T01:06:01;8.20;;;4.23;;
74347;SDS011;62778;50.406;10.008;2022-11-15T01:06:57;7.73;;;4.37;;
74347;SDS011;62778;50.406;10.008;2022-11-15T01:07:53;8.97;;;4.83;;
74347;SDS011;62778;50.406;10.008;2022-11-15T01:08:49;8.35;;;4.60;;
74347;SDS011;62778;50.406;10.008;2022-11-15T01:09:44;8.43;;;4.07;;
74347;SDS011;62778;50.406;10.008;2022-11-15T01:10:40;7.80;;;4.40;;
74347;SDS011;62778;50.406;10.008;2022-11-15T01:11:35;7.85;;;4.00;;
74347;SDS011;62778;50.406;10.008;2022-11-15T01:12:30;8.30;;;4.20;;
74347;SDS011;62778;50.406;10.008;2022-11-15T01:13:26;7.60;;;3.83;;
74347;SDS011;62778;50.406;10.008;2022-11-15T01:14:21;8.23;;;4.30;;
74347;SDS011;62778;50.406;10.008;2022-11-15T01:15:16;8.23;;;4.40;;
74347;SDS011;62778;50.406;10.008;2022-11-15T01:16:12;7.37;;;4.17;;
74347;SDS011;62778;50.406;10.008;2022-11-15T01:17:09;9.23;;;4.60;;
74347;SDS011;62778;50.406;10.008;2022-11-15T01:18:04;8.60;;;4.70;;
74347;SDS011;62778;50.406;10.008;2022-11-15T01:19:00;8.00;;;4.40;;
74347;SDS011;62778;50.406;10.008;2022-11-15T01:19:55;8.90;;;4.60;;
74347;SDS011;62778;50.406;10.008;2022-11-15T01:20:50;8.23;;;4.40;;
74347;SDS011;62778;50.406;10.008;2022-11-15T01:21:48;7.28;;;4.10;;
74347;SDS011;62778;50.406;10.008;2022-11-15T01:22:44;8.43;;;4.80;;
74347;SDS011;62778;50.406;10.008;2022-11-15T01:23:40;9.20;;;4.73;;
74347;SDS011;62778;50.406;10.008;2022-11-15T01:24:35;11.03;;;4.80;;
74347;SDS011;62778;50.406;10.008;2022-11-15T01:25:30;8.43;;;4.20;;
74347;SDS011;62778;50.406;10.008;2022-11-15T01:26:26;8.53;;;4.67;;
74347;SDS011;62778;50.406;10.008;2022-11-15T01:27:21;8.60;;;4.60;;
74347;SDS011;62778;50.406;10.008;2022-11-15T01:28:16;7.97;;;4.70;;
74347;SDS011;62778;50.406;10.008;2022-11-15T01:29:12;8.17;;;5.00;;
74347;SDS011;62778;50.406;10.008;2022-11-15T01:30:07;8.20;;;4.73;;
74347;SDS011;62778;50.406;10.008;2022-11-15T01:31:04;6.35;;;3.55;;
74347;SDS011;62778;50.406;10.008;2022-11-15T01:32:01;7.55;;;3.90;;
74347;SDS011;62778;50.406;10.008;2022-11-15T01:32:56;7.27;;;3.80;;
74347;SDS011;62778;50.406;10.008;2022-11-15T01:33:52;7.53;;;3.60;;
74347;SDS011;62778;50.406;10.008;2022-11-15T01:34:47;7.30;;;3.10;;
74347;SDS011;62778;50.406;10.008;2022-11-15T01:35:42;5.73;;;2.93;;
74347;SDS011;62778;50.406;10.008;2022-11-15T01:36:38;8.37;;;3.90;;
74347;SDS011;62778;50.406;10.008;2022-11-15T01:37:33;6.70;;;3.40;;
74347;SDS011;62778;50.406;10.008;2022-11-15T01:38:28;8.10;;;4.10;;
74347;SDS011;62778;50.406;10.008;2022-11-15T01:39:23;6.73;;;3.90;;
74347;SDS011;62778;50.406;10.008;2022-11-15T01:40:19;8.67;;;4.30;;
74347;SDS011;62778;50.406;10.008;2022-11-15T01:41:15;7.90;;;4.17;;
74347;SDS011;62778;50.406;10.008;2022-11-15T01:42:12;8.48;;;4.22;;
74347;SDS011;62778;50.406;10.008;2022-11-15T01:43:24;6.88;;;3.63;;
74347;SDS011;62778;50.406;10.008;2022-11-15T01:45:25;6.78;;;3.20;;
74347;SDS011;62778;50.406;10.008;2022-11-15T01:47:27;8.82;;;3.30;;
74347;SDS011;62778;50.406;10.008;2022-11-15T01:48:25;6.20;;;3.10;;
74347;SDS011;62778;50.406;10.008;2022-11-15T01:49:29;6.45;;;3.30;;
74347;SDS011;62778;50.406;10.008;2022-11-15T01:50:26;8.35;;;3.60;;
74347;SDS011;62778;50.406;10.008;2022-11-15T01:51:24;7.00;;;3.85;;
74347;SDS011;62778;50.406;10.008;2022-11-15T01:52:22;8.63;;;3.75;;
74347;SDS011;62778;50.406;10.008;2022-11-15T01:53:20;7.05;;;3.53;;
74347;SDS011;62778;50.406;10.008;2022-11-15T01:54:17;7.68;;;3.75;;
74347;SDS011;62778;50.406;10.008;2022-11-15T01:55:15;7.82;;;3.75;;
74347;SDS011;62778;50.406;10.008;2022-11-15T01:56:13;7.00;;;3.78;;
74347;SDS011;62778;50.406;10.008;2022-11-15T01:57:13;7.65;;;4.00;;
74347;SDS011;62778;50.406;10.008;2022-11-15T01:58:08;8.43;;;4.00;;
74347;SDS011;62778;50.406;10.008;2022-11-15T01:59:04;8.27;;;3.87;;
74347;SDS011;62778;50.406;10.008;2022-11-15T02:00:02;8.27;;;4.13;;
74347;SDS011;62778;50.406;10.008;2022-11-15T02:02:45;9.13;;;3.60;;
74347;SDS011;62778;50.406;10.008;2022-11-15T02:03:46;7.63;;;3.50;;
74347;SDS011;62778;50.406;10.008;2022-11-15T02:04:45;6.30;;;3.20;;
74347;SDS011;62778;50.406;10.008;2022-11-15T02:05:42;9.15;;;3.92;;
74347;SDS011;62778;50.406;10.008;2022-11-15T02:06:38;6.25;;;3.38;;
74347;SDS011;62778;50.406;10.008;2022-11-15T02:07:34;7.18;;;3.38;;
74347;SDS011;62778;50.406;10.008;2022-11-15T02:08:30;7.32;;;3.88;;
74347;SDS011;62778;50.406;10.008;2022-11-15T02:09:25;8.83;;;3.27;;
74347;SDS011;62778;50.406;10.008;2022-11-15T02:10:21;6.23;;;3.10;;
74347;SDS011;62778;50.406;10.008;2022-11-15T02:11:18;8.10;;;3.45;;
74347;SDS011;62778;50.406;10.008;2022-11-15T02:12:14;6.67;;;3.50;;
74347;SDS011;62778;50.406;10.008;2022-11-15T02:13:13;6.43;;;3.08;;
74347;SDS011;62778;50.406;10.008;2022-11-15T02:14:10;6.95;;;3.42;;
74347;SDS011;62778;50.406;10.008;2022-11-15T02:15:05;7.07;;;3.67;;
74347;SDS011;62778;50.406;10.008;2022-11-15T02:17:18;7.15;;;3.40;;
74347;SDS011;62778;50.406;10.008;2022-11-15T02:18:24;6.00;;;3.07;;
74347;SDS011;62778;50.406;10.008;2022-11-15T02:28:48;6.85;;;3.30;;
74347;SDS011;62778;50.406;10.008;2022-11-15T02:30:04;6.45;;;2.95;;
74347;SDS011;62778;50.406;10.008;2022-11-15T02:33:35;6.53;;;3.40;;
74347;SDS011;62778;50.406;10.008;2022-11-15T02:34:54;7.17;;;3.67;;
74347;SDS011;62778;50.406;10.008;2022-11-15T02:35:58;6.75;;;3.85;;
74347;SDS011;62778;50.406;10.008;2022-11-15T02:37:58;7.03;;;3.60;;
74347;SDS011;62778;50.406;10.008;2022-11-15T02:39:13;7.55;;;3.75;;
74347;SDS011;62778;50.406;10.008;2022-11-15T02:40:41;8.45;;;3.88;;
74347;SDS011;62778;50.406;10.008;2022-11-15T02:42:03;8.30;;;4.10;;
74347;SDS011;62778;50.406;10.008;2022-11-15T02:43:00;8.20;;;3.83;;
74347;SDS011;62778;50.406;10.008;2022-11-15T02:44:25;9.30;;;3.97;;
74347;SDS011;62778;50.406;10.008;2022-11-15T02:45:30;7.57;;;2.70;;
74347;SDS011;62778;50.406;10.008;2022-11-15T02:46:37;7.40;;;3.07;;
74347;SDS011;62778;50.406;10.008;2022-11-15T02:47:54;6.47;;;2.70;;
74347;SDS011;62778;50.406;10.008;2022-11-15T02:48:52;6.93;;;3.33;;
74347;SDS011;62778;50.406;10.008;2022-11-15T02:49:51;6.73;;;2.70;;
74347;SDS011;62778;50.406;10.008;2022-11-15T02:50:47;6.00;;;2.85;;
74347;SDS011;62778;50.406;10.008;2022-11-15T02:51:43;5.60;;;2.70;;
74347;SDS011;62778;50.406;10.008;2022-11-15T02:52:40;6.53;;;2.80;;
74347;SDS011;62778;50.406;10.008;2022-11-15T02:53:35;7.00;;;3.10;;
74347;SDS011;62778;50.406;10.008;2022-11-15T02:54:32;7.00;;;3.30;;
74347;SDS011;62778;50.406;10.008;2022-11-15T02:55:28;7.90;;;3.58;;
74347;SDS011;62778;50.406;10.008;2022-11-15T02:56:25;6.97;;;3.50;;
74347;SDS011;62778;50.406;10.008;2022-11-15T02:57:35;7.17;;;3.53;;
74347;SDS011;62778;50.406;10.008;2022-11-15T03:00:54;8.75;;;4.20;;
74347;SDS011;62778;50.406;10.008;2022-11-15T03:02:16;9.23;;;4.07;;
74347;SDS011;62778;50.406;10.008;2022-11-15T03:05:21;7.38;;;3.40;;
74347;SDS011;62778;50.406;10.008;2022-11-15T03:06:26;7.57;;;3.65;;
74347;SDS011;62778;50.406;10.008;2022-11-15T03:07:25;7.43;;;3.50;;
74347;SDS011;62778;50.406;10.008;2022-11-15T03:08:31;7.30;;;3.30;;
74347;SDS011;62778;50.406;10.008;2022-11-15T03:09:35;7.18;;;3.75;;
74347;SDS011;62778;50.406;10.008;2022-11-15T03:11:48;6.80;;;3.13;;
74347;SDS011;62778;50.406;10.008;2022-11-15T03:12:47;7.97;;;3.42;;
74347;SDS011;62778;50.406;10.008;2022-11-15T03:15:11;6.75;;;3.55;;
74347;SDS011;62778;50.406;10.008;2022-11-15T03:17:36;7.75;;;3.78;;
74347;SDS011;62778;50.406;10.008;2022-11-15T03:18:35;8.95;;;4.05;;
74347;SDS011;62778;50.406;10.008;2022-11-15T03:19:34;7.63;;;3.70;;
74347;SDS011;62778;50.406;10.008;2022-11-15T03:20:32;7.05;;;3.70;;
74347;SDS011;62778;50.406;10.008;2022-11-15T03:21:30;6.72;;;3.58;;
74347;SDS011;62778;50.406;10.008;2022-11-15T03:22:27;7.10;;;3.20;;
74347;SDS011;62778;50.406;10.008;2022-11-15T03:23:24;6.70;;;2.97;;
74347;SDS011;62778;50.406;10.008;2022-11-15T03:24:20;6.75;;;3.30;;
74347;SDS011;62778;50.406;10.008;2022-11-15T03:25:20;5.95;;;3.03;;
74347;SDS011;62778;50.406;10.008;2022-11-15T03:26:18;6.53;;;3.05;;
74347;SDS011;62778;50.406;10.008;2022-11-15T03:27:15;8.52;;;3.70;;
74347;SDS011;62778;50.406;10.008;2022-11-15T03:28:15;7.55;;;3.83;;
74347;SDS011;62778;50.406;10.008;2022-11-15T03:29:17;8.03;;;3.63;;
74347;SDS011;62778;50.406;10.008;2022-11-15T03:30:16;6.80;;;3.65;;
74347;SDS011;62778;50.406;10.008;2022-11-15T03:31:12;6.95;;;3.25;;
74347;SDS011;62778;50.406;10.008;2022-11-15T03:32:30;6.90;;;3.33;;
74347;SDS011;62778;50.406;10.008;2022-11-15T03:33:29;7.00;;;3.25;;
74347;SDS011;62778;50.406;10.008;2022-11-15T03:34:28;7.10;;;3.50;;
74347;SDS011;62778;50.406;10.008;2022-11-15T03:35:27;7.40;;;3.45;;
74347;SDS011;62778;50.406;10.008;2022-11-15T03:36:25;7.65;;;4.15;;
74347;SDS011;62778;50.406;10.008;2022-11-15T03:37:22;7.43;;;3.53;;
74347;SDS011;62778;50.406;10.008;2022-11-15T03:38:24;8.23;;;3.40;;
74347;SDS011;62778;50.406;10.008;2022-11-15T03:39:20;7.50;;;3.60;;
74347;SDS011;62778;50.406;10.008;2022-11-15T03:40:17;6.57;;;3.23;;
74347;SDS011;62778;50.406;10.008;2022-11-15T03:41:15;6.57;;;3.80;;
74347;SDS011;62778;50.406;10.008;2022-11-15T03:42:30;6.60;;;3.33;;
74347;SDS011;62778;50.406;10.008;2022-11-15T03:44:45;7.65;;;3.72;;
74347;SDS011;62778;50.406;10.008;2022-11-15T03:45:49;8.85;;;3.90;;
74347;SDS011;62778;50.406;10.008;2022-11-15T03:48:13;7.43;;;4.07;;
74347;SDS011;62778;50.406;10.008;2022-11-15T03:49:11;9.95;;;4.32;;
74347;SDS011;62778;50.406;10.008;2022-11-15T03:50:11;7.85;;;3.97;;
74347;SDS011;62778;50.406;10.008;2022-11-15T03:51:08;7.50;;;3.50;;
74347;SDS011;62778;50.406;10.008;2022-11-15T03:52:04;7.75;;;3.90;;
74347;SDS011;62778;50.406;10.008;2022-11-15T03:53:00;7.45;;;4.10;;
74347;SDS011;62778;50.406;10.008;2022-11-15T03:53:55;8.00;;;4.13;;
74347;SDS011;62778;50.406;10.008;2022-11-15T03:54:52;7.23;;;3.60;;
74347;SDS011;62778;50.406;10.008;2022-11-15T03:55:49;6.88;;;3.22;;
74347;SDS011;62778;50.406;10.008;2022-11-15T03:56:44;6.27;;;2.60;;
74347;SDS011;62778;50.406;10.008;2022-11-15T03:57:39;7.30;;;3.65;;
74347;SDS011;62778;50.406;10.008;2022-11-15T03:58:35;7.00;;;3.60;;
74347;SDS011;62778;50.406;10.008;2022-11-15T03:59:30;7.10;;;3.50;;
74347;SDS011;62778;50.406;10.008;2022-11-15T04:00:25;7.40;;;3.70;;
74347;SDS011;62778;50.406;10.008;2022-11-15T04:01:21;8.80;;;4.18;;
74347;SDS011;62778;50.406;10.008;2022-11-15T04:02:17;7.37;;;4.27;;
74347;SDS011;62778;50.406;10.008;2022-11-15T04:03:12;8.70;;;4.60;;
74347;SDS011;62778;50.406;10.008;2022-11-15T04:04:07;8.70;;;4.73;;
74347;SDS011;62778;50.406;10.008;2022-11-15T04:05:03;9.80;;;5.07;;
74347;SDS011;62778;50.406;10.008;2022-11-15T04:05:58;8.57;;;4.38;;
74347;SDS011;62778;50.406;10.008;2022-11-15T04:06:54;7.07;;;3.70;;
74347;SDS011;62778;50.406;10.008;2022-11-15T04:07:49;7.00;;;3.37;;
74347;SDS011;62778;50.406;10.008;2022-11-15T04:08:44;6.53;;;3.37;;
74347;SDS011;62778;50.406;10.008;2022-11-15T04:09:40;6.53;;;3.15;;
74347;SDS011;62778;50.406;10.008;2022-11-15T04:10:53;6.10;;;2.50;;
74347;SDS011;62778;50.406;10.008;2022-11-15T04:11:49;6.22;;;2.92;;
74347;SDS011;62778;50.406;10.008;2022-11-15T04:12:44;6.40;;;2.97;;
74347;SDS011;62778;50.406;10.008;2022-11-15T04:13:42;6.43;;;3.03;;
74347;SDS011;62778;50.406;10.008;2022-11-15T04:14:37;6.93;;;3.63;;
74347;SDS011;62778;50.406;10.008;2022-11-15T04:15:53;6.22;;;3.35;;
74347;SDS011;62778;50.406;10.008;2022-11-15T04:16:48;6.60;;;3.43;;
74347;SDS011;62778;50.406;10.008;2022-11-15T04:17:44;6.47;;;3.10;;
74347;SDS011;62778;50.406;10.008;2022-11-15T04:18:44;7.32;;;3.08;;
74347;SDS011;62778;50.406;10.008;2022-11-15T04:19:39;7.23;;;3.67;;
74347;SDS011;62778;50.406;10.008;2022-11-15T04:20:53;7.28;;;4.10;;
74347;SDS011;62778;50.406;10.008;2022-11-15T04:22:07;7.35;;;3.78;;
74347;SDS011;62778;50.406;10.008;2022-11-15T04:23:22;8.05;;;4.10;;
74347;SDS011;62778;50.406;10.008;2022-11-15T04:24:36;8.80;;;3.92;;
74347;SDS011;62778;50.406;10.008;2022-11-15T04:25:32;9.53;;;4.33;;
74347;SDS011;62778;50.406;10.008;2022-11-15T04:26:27;7.63;;;3.73;;
74347;SDS011;62778;50.406;10.008;2022-11-15T04:27:22;7.18;;;3.28;;
74347;SDS011;62778;50.406;10.008;2022-11-15T04:28:18;7.00;;;3.40;;
74347;SDS011;62778;50.406;10.008;2022-11-15T04:29:13;6.83;;;3.50;;
74347;SDS011;62778;50.406;10.008;2022-11-15T04:30:27;7.50;;;4.00;;
74347;SDS011;62778;50.406;10.008;2022-11-15T04:31:22;7.87;;;3.43;;
74347;SDS011;62778;50.406;10.008;2022-11-15T04:32:18;7.50;;;3.63;;
74347;SDS011;62778;50.406;10.008;2022-11-15T04:33:13;6.63;;;3.50;;
74347;SDS011;62778;50.406;10.008;2022-11-15T04:34:09;6.77;;;3.27;;
74347;SDS011;62778;50.406;10.008;2022-11-15T04:35:04;7.10;;;3.15;;
74347;SDS011;62778;50.406;10.008;2022-11-15T04:36:00;7.47;;;3.40;;
74347;SDS011;62778;50.406;10.008;2022-11-15T04:37:14;6.55;;;3.75;;
74347;SDS011;62778;50.406;10.008;2022-11-15T04:38:11;8.07;;;3.72;;
74347;SDS011;62778;50.406;10.008;2022-11-15T04:39:06;7.80;;;3.73;;
74347;SDS011;62778;50.406;10.008;2022-11-15T04:40:01;7.72;;;3.53;;
74347;SDS011;62778;50.406;10.008;2022-11-15T04:40:57;7.60;;;3.77;;
74347;SDS011;62778;50.406;10.008;2022-11-15T04:41:52;6.63;;;3.33;;
74347;SDS011;62778;50.406;10.008;2022-11-15T04:42:48;6.57;;;3.20;;
74347;SDS011;62778;50.406;10.008;2022-11-15T04:43:43;5.60;;;2.67;;
74347;SDS011;62778;50.406;10.008;2022-11-15T04:44:38;6.57;;;3.40;;
74347;SDS011;62778;50.406;10.008;2022-11-15T04:45:34;7.07;;;3.63;;
74347;SDS011;62778;50.406;10.008;2022-11-15T04:46:29;6.87;;;3.33;;
74347;SDS011;62778;50.406;10.008;2022-11-15T04:47:24;7.30;;;3.30;;
74347;SDS011;62778;50.406;10.008;2022-11-15T04:48:20;6.63;;;2.95;;
74347;SDS011;62778;50.406;10.008;2022-11-15T04:49:15;6.13;;;3.10;;
74347;SDS011;62778;50.406;10.008;2022-11-15T04:50:11;6.13;;;3.13;;
74347;SDS011;62778;50.406;10.008;2022-11-15T04:51:09;5.85;;;3.08;;
74347;SDS011;62778;50.406;10.008;2022-11-15T04:52:05;5.90;;;2.57;;
74347;SDS011;62778;50.406;10.008;2022-11-15T04:53:00;6.97;;;3.20;;
74347;SDS011;62778;50.406;10.008;2022-11-15T04:53:55;8.15;;;3.95;;
74347;SDS011;62778;50.406;10.008;2022-11-15T04:54:51;7.93;;;4.50;;
74347;SDS011;62778;50.406;10.008;2022-11-15T04:55:46;8.60;;;3.73;;
74347;SDS011;62778;50.406;10.008;2022-11-15T04:56:41;8.70;;;4.13;;
74347;SDS011;62778;50.406;10.008;2022-11-15T04:57:37;8.00;;;4.57;;
74347;SDS011;62778;50.406;10.008;2022-11-15T04:58:32;7.63;;;4.40;;
74347;SDS011;62778;50.406;10.008;2022-11-15T04:59:28;7.88;;;4.35;;
74347;SDS011;62778;50.406;10.008;2022-11-15T05:00:24;8.83;;;5.07;;
74347;SDS011;62778;50.406;10.008;2022-11-15T05:01:19;8.03;;;4.57;;
74347;SDS011;62778;50.406;10.008;2022-11-15T05:02:14;9.63;;;5.40;;
74347;SDS011;62778;50.406;10.008;2022-11-15T05:03:09;9.33;;;5.07;;
74347;SDS011;62778;50.406;10.008;2022-11-15T05:04:23;8.82;;;4.85;;
74347;SDS011;62778;50.406;10.008;2022-11-15T05:05:18;8.57;;;4.23;;
74347;SDS011;62778;50.406;10.008;2022-11-15T05:06:14;9.97;;;5.10;;
74347;SDS011;62778;50.406;10.008;2022-11-15T05:07:09;8.07;;;3.60;;
74347;SDS011;62778;50.406;10.008;2022-11-15T05:08:04;7.73;;;3.63;;
74347;SDS011;62778;50.406;10.008;2022-11-15T05:09:00;9.27;;;4.40;;
74347;SDS011;62778;50.406;10.008;2022-11-15T05:09:55;8.47;;;4.10;;
74347;SDS011;62778;50.406;10.008;2022-11-15T05:10:50;8.77;;;4.37;;
74347;SDS011;62778;50.406;10.008;2022-11-15T05:11:46;10.57;;;4.53;;
74347;SDS011;62778;50.406;10.008;2022-11-15T05:12:42;9.10;;;4.83;;
74347;SDS011;62778;50.406;10.008;2022-11-15T05:13:37;9.32;;;5.13;;
74347;SDS011;62778;50.406;10.008;2022-11-15T05:14:32;10.00;;;5.60;;
74347;SDS011;62778;50.406;10.008;2022-11-15T05:15:28;9.67;;;5.57;;
74347;SDS011;62778;50.406;10.008;2022-11-15T05:16:23;9.90;;;5.90;;
74347;SDS011;62778;50.406;10.008;2022-11-15T05:17:18;10.03;;;5.13;;
74347;SDS011;62778;50.406;10.008;2022-11-15T05:18:14;10.27;;;4.90;;
74347;SDS011;62778;50.406;10.008;2022-11-15T05:19:09;9.77;;;5.27;;
74347;SDS011;62778;50.406;10.008;2022-11-15T05:20:04;9.60;;;4.83;;
74347;SDS011;62778;50.406;10.008;2022-11-15T05:21:04;8.05;;;4.18;;
74347;SDS011;62778;50.406;10.008;2022-11-15T05:22:03;8.93;;;4.90;;
74347;SDS011;62778;50.406;10.008;2022-11-15T05:22:58;11.50;;;5.37;;
74347;SDS011;62778;50.406;10.008;2022-11-15T05:23:53;8.60;;;4.77;;
74347;SDS011;62778;50.406;10.008;2022-11-15T05:24:49;8.40;;;4.60;;
74347;SDS011;62778;50.406;10.008;2022-11-15T05:25:44;9.20;;;5.10;;
74347;SDS011;62778;50.406;10.008;2022-11-15T05:26:40;10.87;;;5.13;;
74347;SDS011;62778;50.406;10.008;2022-11-15T05:27:35;7.95;;;4.13;;
74347;SDS011;62778;50.406;10.008;2022-11-15T05:28:31;7.73;;;4.10;;
74347;SDS011;62778;50.406;10.008;2022-11-15T05:29:27;7.75;;;3.83;;
74347;SDS011;62778;50.406;10.008;2022-11-15T05:30:22;9.27;;;4.30;;
74347;SDS011;62778;50.406;10.008;2022-11-15T05:31:17;7.03;;;3.83;;
74347;SDS011;62778;50.406;10.008;2022-11-15T05:32:13;6.85;;;4.00;;
74347;SDS011;62778;50.406;10.008;2022-11-15T05:33:08;6.93;;;3.60;;
74347;SDS011;62778;50.406;10.008;2022-11-15T05:34:03;6.90;;;4.10;;
74347;SDS011;62778;50.406;10.008;2022-11-15T05:34:59;7.40;;;4.20;;
74347;SDS011;62778;50.406;10.008;2022-11-15T05:35:56;8.63;;;4.67;;
74347;SDS011;62778;50.406;10.008;2022-11-15T05:36:55;7.03;;;4.10;;
74347;SDS011;62778;50.406;10.008;2022-11-15T05:37:50;8.63;;;4.17;;
74347;SDS011;62778;50.406;10.008;2022-11-15T05:38:46;7.20;;;3.80;;
74347;SDS011;62778;50.406;10.008;2022-11-15T05:39:42;10.53;;;5.10;;
74347;SDS011;62778;50.406;10.008;2022-11-15T05:40:37;10.13;;;5.32;;
74347;SDS011;62778;50.406;10.008;2022-11-15T05:41:33;8.70;;;4.30;;
74347;SDS011;62778;50.406;10.008;2022-11-15T05:42:32;9.38;;;4.43;;
74347;SDS011;62778;50.406;10.008;2022-11-15T05:43:28;9.23;;;4.63;;
74347;SDS011;62778;50.406;10.008;2022-11-15T05:44:25;9.00;;;4.72;;
74347;SDS011;62778;50.406;10.008;2022-11-15T05:45:21;7.97;;;4.30;;
74347;SDS011;62778;50.406;10.008;2022-11-15T05:46:16;9.13;;;4.43;;
74347;SDS011;62778;50.406;10.008;2022-11-15T05:47:13;12.27;;;7.25;;
74347;SDS011;62778;50.406;10.008;2022-11-15T05:48:12;10.23;;;6.07;;
74347;SDS011;62778;50.406;10.008;2022-11-15T05:49:09;9.80;;;5.50;;
74347;SDS011;62778;50.406;10.008;2022-11-15T05:50:06;9.82;;;6.15;;
74347;SDS011;62778;50.406;10.008;2022-11-15T05:51:02;9.63;;;5.30;;
74347;SDS011;62778;50.406;10.008;2022-11-15T05:51:58;9.63;;;6.07;;
74347;SDS011;62778;50.406;10.008;2022-11-15T05:52:56;9.57;;;5.35;;
74347;SDS011;62778;50.406;10.008;2022-11-15T05:53:52;10.40;;;5.80;;
74347;SDS011;62778;50.406;10.008;2022-11-15T05:54:48;10.10;;;5.40;;
74347;SDS011;62778;50.406;10.008;2022-11-15T05:55:44;9.52;;;5.80;;
74347;SDS011;62778;50.406;10.008;2022-11-15T05:56:39;11.80;;;6.80;;
74347;SDS011;62778;50.406;10.008;2022-11-15T05:57:35;9.85;;;6.45;;
74347;SDS011;62778;50.406;10.008;2022-11-15T05:58:31;11.97;;;6.57;;
74347;SDS011;62778;50.406;10.008;2022-11-15T05:59:30;11.75;;;6.82;;
74347;SDS011;62778;50.406;10.008;2022-11-15T06:00:26;11.55;;;6.93;;
74347;SDS011;62778;50.406;10.008;2022-11-15T06:01:21;10.53;;;5.67;;
74347;SDS011;62778;50.406;10.008;2022-11-15T06:02:17;11.05;;;5.88;;
74347;SDS011;62778;50.406;10.008;2022-11-15T06:03:13;10.40;;;5.80;;
74347;SDS011;62778;50.406;10.008;2022-11-15T06:04:09;12.10;;;6.20;;
74347;SDS011;62778;50.406;10.008;2022-11-15T06:05:07;10.93;;;6.18;;
74347;SDS011;62778;50.406;10.008;2022-11-15T06:06:02;11.93;;;6.70;;
74347;SDS011;62778;50.406;10.008;2022-11-15T06:06:58;11.30;;;6.23;;
74347;SDS011;62778;50.406;10.008;2022-11-15T06:07:56;10.53;;;5.77;;
74347;SDS011;62778;50.406;10.008;2022-11-15T06:08:52;9.73;;;5.28;;
74347;SDS011;62778;50.406;10.008;2022-11-15T06:09:48;9.77;;;5.40;;
74347;SDS011;62778;50.406;10.008;2022-11-15T06:10:43;9.98;;;5.20;;